createdAt,value
2019-05-26T00:01:39.603Z,12.37
2019-05-26T00:06:41.569Z,12.40
2019-05-26T00:11:43.578Z,12.25
2019-05-26T00:16:45.677Z,12.15
2019-05-26T00:21:48.859Z,12.10
2019-05-26T00:26:50.835Z,12.08
2019-05-26T00:31:52.640Z,11.97
2019-05-26T00:36:54.563Z,12.09
2019-05-26T00:41:56.400Z,12.03
2019-05-26T00:46:58.465Z,11.98
2019-05-26T00:52:02.824Z,11.86
2019-05-26T00:57:07.518Z,11.89
2019-05-26T01:02:09.340Z,11.98
2019-05-26T01:07:11.321Z,11.96
2019-05-26T01:12:16.170Z,11.97
2019-05-26T01:17:19.529Z,12.01
2019-05-26T01:22:21.375Z,11.99
2019-05-26T01:27:23.341Z,11.88
2019-05-26T01:32:25.272Z,11.79
2019-05-26T01:37:31.525Z,11.90
2019-05-26T01:42:33.333Z,11.94
2019-05-26T01:47:37.017Z,11.78
2019-05-26T01:52:40.617Z,11.75
2019-05-26T01:57:42.452Z,11.87
2019-05-26T02:02:47.388Z,12.05
2019-05-26T02:07:49.483Z,12.11
2019-05-26T02:12:52.473Z,12.24
2019-05-26T02:17:54.339Z,12.42
2019-05-26T02:22:56.148Z,12.44
2019-05-26T02:27:58.070Z,12.48
2019-05-26T02:33:00.042Z,12.48
2019-05-26T02:38:01.847Z,12.44
2019-05-26T02:43:03.730Z,12.56
2019-05-26T02:48:05.711Z,12.73
2019-05-26T02:53:07.578Z,12.76
2019-05-26T02:58:09.375Z,12.96
2019-05-26T03:03:14.265Z,12.86
2019-05-26T03:08:16.348Z,12.93
2019-05-26T03:13:18.353Z,13.00
2019-05-26T03:18:20.139Z,13.01
2019-05-26T03:23:22.252Z,13.02
2019-05-26T03:28:24.073Z,13.10
2019-05-26T03:33:26.108Z,13.28
2019-05-26T03:38:27.994Z,13.25
2019-05-26T03:43:29.781Z,13.20
2019-05-26T03:48:31.538Z,13.24
2019-05-26T03:53:33.346Z,13.33
2019-05-26T03:58:35.148Z,13.38
2019-05-26T04:03:36.996Z,13.62
2019-05-26T04:08:38.909Z,13.68
2019-05-26T04:13:40.992Z,13.81
2019-05-26T04:18:42.798Z,13.74
2019-05-26T04:23:44.863Z,13.72
2019-05-26T04:28:46.700Z,13.75
2019-05-26T04:33:48.678Z,13.95
2019-05-26T04:38:50.481Z,13.80
2019-05-26T04:43:52.478Z,13.94
2019-05-26T04:48:54.311Z,14.05
2019-05-26T04:53:55.908Z,14.22
2019-05-26T04:58:58.114Z,14.53
2019-05-26T05:03:59.828Z,14.46
2019-05-26T05:09:01.738Z,14.41
2019-05-26T05:14:03.940Z,14.53
2019-05-26T05:19:07.988Z,14.94
2019-05-26T05:24:09.941Z,14.98
2019-05-26T05:29:11.833Z,15.26
2019-05-26T05:34:13.779Z,15.52
2019-05-26T05:39:15.473Z,15.04
2019-05-26T05:44:17.329Z,15.31
2019-05-26T05:49:19.180Z,15.48
2019-05-26T05:54:21.110Z,15.23
2019-05-26T05:59:22.966Z,15.43
2019-05-26T06:04:26.623Z,15.39
2019-05-26T06:09:28.439Z,15.35
2019-05-26T06:14:30.514Z,15.30
2019-05-26T06:19:32.320Z,15.26
2019-05-26T06:24:34.190Z,15.64
2019-05-26T06:29:36.045Z,16.22
2019-05-26T06:34:38.181Z,17.18
2019-05-26T06:39:42.708Z,16.73
2019-05-26T06:44:53.655Z,16.51
2019-05-26T06:49:51.373Z,16.32
2019-05-26T06:54:57.919Z,16.50
2019-05-26T06:59:59.776Z,16.94
2019-05-26T07:05:01.840Z,17.49
2019-05-26T07:10:04.150Z,17.83
2019-05-26T07:15:06.650Z,18.36
2019-05-26T07:20:08.768Z,18.91
2019-05-26T07:25:10.876Z,19.55
2019-05-26T07:30:12.829Z,18.37
2019-05-26T07:35:14.914Z,19.94
2019-05-26T07:40:19.069Z,19.78
2019-05-26T07:45:20.951Z,20.71
2019-05-26T07:50:22.750Z,20.03
2019-05-26T07:55:24.834Z,19.85
2019-05-26T08:00:30.148Z,19.92
2019-05-26T08:05:32.248Z,19.00
2019-05-26T08:10:35.477Z,19.90
2019-05-26T08:15:40.372Z,19.72
2019-05-26T08:20:44.819Z,20.24
2019-05-26T08:25:46.652Z,20.55
2019-05-26T08:30:48.455Z,21.21
2019-05-26T08:35:53.000Z,20.93
2019-05-26T08:40:54.803Z,20.44
2019-05-26T08:46:00.599Z,21.76
2019-05-26T08:51:02.459Z,21.83
2019-05-26T08:56:07.332Z,21.93
2019-05-26T09:01:09.123Z,22.04
2019-05-26T09:06:16.160Z,21.73
2019-05-26T09:11:17.993Z,21.88
2019-05-26T09:16:22.903Z,22.10
2019-05-26T09:21:24.714Z,22.63
2019-05-26T09:26:26.683Z,22.65
2019-05-26T09:31:28.476Z,23.32
2019-05-26T09:36:30.175Z,22.68
2019-05-26T09:41:31.984Z,22.51
2019-05-26T09:46:38.741Z,22.91
2019-05-26T09:51:43.689Z,22.84
2019-05-26T09:56:48.529Z,22.06
2019-05-26T10:01:50.328Z,21.68
2019-05-26T10:06:52.139Z,21.47
2019-05-26T10:11:58.836Z,22.38
2019-05-26T10:17:03.848Z,21.31
2019-05-26T10:22:05.643Z,21.39
2019-05-26T10:27:07.679Z,22.28
2019-05-26T10:32:11.632Z,22.64
2019-05-26T10:37:15.227Z,22.59
2019-05-26T10:42:17.044Z,23.28
2019-05-26T10:47:21.407Z,24.10
2019-05-26T10:52:23.199Z,22.83
2019-05-26T10:57:25.105Z,22.57
2019-05-26T11:02:26.892Z,22.77
2019-05-26T11:07:28.756Z,22.59
2019-05-26T11:12:36.176Z,23.26
2019-05-26T11:17:39.225Z,22.29
2019-05-26T11:22:41.041Z,22.27
2019-05-26T11:27:45.967Z,22.70
2019-05-26T11:32:49.654Z,22.52
2019-05-26T11:37:51.705Z,22.36
2019-05-26T11:42:56.047Z,22.22
2019-05-26T11:47:59.270Z,22.69
2019-05-26T11:53:03.913Z,23.55
2019-05-26T11:58:06.042Z,23.82
2019-05-26T12:03:07.854Z,23.76
2019-05-26T12:08:09.857Z,23.66
2019-05-26T12:13:12.878Z,23.61
2019-05-26T12:18:14.958Z,23.55
2019-05-26T12:23:16.720Z,23.57
2019-05-26T12:28:20.614Z,23.17
2019-05-26T12:33:24.813Z,23.08
2019-05-26T12:38:28.950Z,23.37
2019-05-26T12:43:32.228Z,23.56
2019-05-26T12:48:36.341Z,23.58
2019-05-26T12:53:38.229Z,23.70
2019-05-26T12:58:40.035Z,23.83
2019-05-26T13:03:41.780Z,23.87
2019-05-26T13:08:47.766Z,23.14
2019-05-26T13:13:51.691Z,23.72
2019-05-26T13:18:53.542Z,23.36
2019-05-26T13:23:55.389Z,23.29
2019-05-26T13:28:58.941Z,24.05
2019-05-26T13:34:00.806Z,23.46
2019-05-26T13:39:04.605Z,23.56
2019-05-26T13:44:06.695Z,23.73
2019-05-26T13:49:08.595Z,23.52
2019-05-26T13:54:10.636Z,23.63
2019-05-26T13:59:12.452Z,23.80
2019-05-26T14:04:14.254Z,23.26
2019-05-26T14:09:18.948Z,23.34
2019-05-26T14:14:21.035Z,23.27
2019-05-26T14:19:26.088Z,23.26
2019-05-26T14:24:28.006Z,23.14
2019-05-26T14:29:29.930Z,23.11
2019-05-26T14:34:32.023Z,23.42
2019-05-26T14:39:33.836Z,23.36
2019-05-26T14:44:35.685Z,23.42
2019-05-26T14:49:37.502Z,23.07
2019-05-26T14:54:41.058Z,23.48
2019-05-26T14:59:43.232Z,22.86
2019-05-26T15:04:47.912Z,22.93
2019-05-26T15:09:52.374Z,23.21
2019-05-26T15:14:54.370Z,22.92
2019-05-26T15:19:58.308Z,22.86
2019-05-26T15:25:04.142Z,23.00
2019-05-26T15:30:08.396Z,23.07
2019-05-26T15:35:11.150Z,22.94
2019-05-26T15:40:13.154Z,22.94
2019-05-26T15:45:17.110Z,22.93
2019-05-26T15:50:19.020Z,22.60
2019-05-26T15:55:20.946Z,22.47
2019-05-26T16:00:22.948Z,22.50
2019-05-26T16:05:27.564Z,22.22
2019-05-26T16:10:29.410Z,22.51
2019-05-26T16:15:31.377Z,22.45
2019-05-26T16:20:33.201Z,22.17
2019-05-26T16:25:35.231Z,22.05
2019-05-26T16:30:37.065Z,21.69
2019-05-26T16:35:38.957Z,21.89
2019-05-26T16:40:41.103Z,21.71
2019-05-26T16:45:55.682Z,22.09
2019-05-26T16:50:46.913Z,22.44
2019-05-26T16:55:48.976Z,22.41
2019-05-26T17:00:50.798Z,21.95
2019-05-26T17:06:06.977Z,21.66
2019-05-26T17:10:56.356Z,21.72
2019-05-26T17:16:00.838Z,21.19
2019-05-26T17:21:02.681Z,21.47
2019-05-26T17:26:04.567Z,21.39
2019-05-26T17:31:06.378Z,21.52
2019-05-26T17:36:10.307Z,21.96
2019-05-26T17:41:13.429Z,21.47
2019-05-26T17:46:18.310Z,20.97
2019-05-26T17:51:20.008Z,20.80
2019-05-26T17:56:21.952Z,20.72
2019-05-26T18:01:28.454Z,20.44
2019-05-26T18:06:30.533Z,20.17
2019-05-26T18:11:32.328Z,20.33
2019-05-26T18:16:34.115Z,19.94
2019-05-26T18:21:35.934Z,20.16
2019-05-26T18:26:39.060Z,19.76
2019-05-26T18:31:40.862Z,19.77
2019-05-26T18:36:42.667Z,19.52
2019-05-26T18:41:44.465Z,19.55
2019-05-26T18:46:47.794Z,19.50
2019-05-26T18:51:51.077Z,19.44
2019-05-26T18:56:53.186Z,19.35
2019-05-26T19:01:55.082Z,19.04
2019-05-26T19:06:57.079Z,18.92
2019-05-26T19:11:59.062Z,18.87
2019-05-26T19:17:01.070Z,18.70
2019-05-26T19:22:02.884Z,18.37
2019-05-26T19:27:05.977Z,18.27
2019-05-26T19:32:09.221Z,18.15
2019-05-26T19:37:12.313Z,17.70
2019-05-26T19:42:14.302Z,18.08
2019-05-26T19:47:16.290Z,17.95
2019-05-26T19:52:18.118Z,17.60
2019-05-26T19:57:22.213Z,19.69
2019-05-26T20:02:24.015Z,19.30
2019-05-26T20:07:25.909Z,19.38
2019-05-26T20:12:27.804Z,18.85
2019-05-26T20:17:29.806Z,19.24
2019-05-26T20:22:32.874Z,18.14
2019-05-26T20:27:35.010Z,18.19
2019-05-26T20:32:38.226Z,18.43
2019-05-26T20:37:40.108Z,16.45
2019-05-26T20:42:48.198Z,16.55
2019-05-26T20:47:50.176Z,16.70
2019-05-26T20:52:52.057Z,16.05
2019-05-26T20:57:56.647Z,15.79
2019-05-26T21:03:01.421Z,16.03
2019-05-26T21:08:04.335Z,16.03
2019-05-26T21:13:06.163Z,16.06
2019-05-26T21:18:08.202Z,17.67
2019-05-26T21:23:10.006Z,16.96
2019-05-26T21:28:11.879Z,16.30
2019-05-26T21:33:15.282Z,17.62
2019-05-26T21:38:17.164Z,16.53
2019-05-26T21:43:21.855Z,16.00
2019-05-26T21:48:25.660Z,16.33
2019-05-26T21:53:27.560Z,16.30
2019-05-26T21:58:35.925Z,16.37
2019-05-26T22:03:38.057Z,16.79
2019-05-26T22:08:39.893Z,26.86
2019-05-26T22:13:41.530Z,16.59
2019-05-26T22:18:43.337Z,18.34
2019-05-26T22:23:45.162Z,16.86
2019-05-26T22:28:46.968Z,17.18
2019-05-26T22:33:48.777Z,17.32
2019-05-26T22:38:52.595Z,17.17
2019-05-26T22:43:54.494Z,36.02
2019-05-26T22:48:56.291Z,17.26
2019-05-26T22:53:58.172Z,16.39
2019-05-26T22:58:59.942Z,16.30
2019-05-26T23:04:03.298Z,16.03
2019-05-26T23:09:05.953Z,15.98
2019-05-26T23:14:07.716Z,15.69
2019-05-26T23:19:18.705Z,15.88
2019-05-26T23:24:13.498Z,15.76
2019-05-26T23:29:15.274Z,15.85
2019-05-26T23:34:16.967Z,15.73
2019-05-26T23:39:18.763Z,15.71
2019-05-26T23:44:21.957Z,15.83
2019-05-26T23:49:23.787Z,15.73
2019-05-26T23:54:27.951Z,15.86
2019-05-26T23:59:29.656Z,15.88
